sensor_id;sensor_type;location;lat;lon;timestamp;P1;P2;P0
45440;PMS5003;31189;38.790;-77.084;2024-02-21T00:00:16;16;12;
45440;PMS5003;31189;38.790;-77.084;2024-02-21T00:02:41;24;11;
45440;PMS5003;31189;38.790;-77.084;2024-02-21T00:05:07;17;15;
45440;PMS5003;31189;38.790;-77.084;2024-02-21T00:07:32;10;10;
45440;PMS5003;31189;38.790;-77.084;2024-02-21T00:09:58;13;12;
45440;PMS5003;31189;38.790;-77.084;2024-02-21T00:12:23;14;10;
45440;PMS5003;31189;38.790;-77.084;2024-02-21T00:14:49;13;11;
45440;PMS5003;31189;38.790;-77.084;2024-02-21T00:17:15;14;11;
45440;PMS5003;31189;38.790;-77.084;2024-02-21T00:19:42;12;12;
45440;PMS5003;31189;38.790;-77.084;2024-02-21T00:22:06;12;12;
45440;PMS5003;31189;38.790;-77.084;2024-02-21T00:24:32;13;11;
45440;PMS5003;31189;38.790;-77.084;2024-02-21T00:26:57;12;11;
45440;PMS5003;31189;38.790;-77.084;2024-02-21T00:29:23;13;11;
45440;PMS5003;31189;38.790;-77.084;2024-02-21T00:31:49;13;13;
45440;PMS5003;31189;38.790;-77.084;2024-02-21T00:34:14;17;11;
45440;PMS5003;31189;38.790;-77.084;2024-02-21T00:36:40;13;10;
45440;PMS5003;31189;38.790;-77.084;2024-02-21T00:39:05;12;11;
45440;PMS5003;31189;38.790;-77.084;2024-02-21T00:41:32;14;12;
45440;PMS5003;31189;38.790;-77.084;2024-02-21T00:43:57;11;10;
45440;PMS5003;31189;38.790;-77.084;2024-02-21T00:46:23;15;11;
45440;PMS5003;31189;38.790;-77.084;2024-02-21T00:48:48;14;13;
45440;PMS5003;31189;38.790;-77.084;2024-02-21T00:51:14;10;9;
45440;PMS5003;31189;38.790;-77.084;2024-02-21T00:53:40;15;13;
45440;PMS5003;31189;38.790;-77.084;2024-02-21T00:56:05;26;13;
45440;PMS5003;31189;38.790;-77.084;2024-02-21T00:58:31;11;11;
45440;PMS5003;31189;38.790;-77.084;2024-02-21T01:00:56;20;16;
45440;PMS5003;31189;38.790;-77.084;2024-02-21T01:03:22;12;12;
45440;PMS5003;31189;38.790;-77.084;2024-02-21T01:05:47;16;13;
45440;PMS5003;31189;38.790;-77.084;2024-02-21T01:08:13;12;12;
45440;PMS5003;31189;38.790;-77.084;2024-02-21T01:10:38;14;14;
45440;PMS5003;31189;38.790;-77.084;2024-02-21T01:13:03;16;14;
45440;PMS5003;31189;38.790;-77.084;2024-02-21T01:15:29;16;14;
45440;PMS5003;31189;38.790;-77.084;2024-02-21T01:17:54;16;12;
45440;PMS5003;31189;38.790;-77.084;2024-02-21T01:20:20;15;13;
45440;PMS5003;31189;38.790;-77.084;2024-02-21T01:22:45;13;12;
45440;PMS5003;31189;38.790;-77.084;2024-02-21T01:25:11;17;14;
45440;PMS5003;31189;38.790;-77.084;2024-02-21T01:27:36;13;13;
45440;PMS5003;31189;38.790;-77.084;2024-02-21T01:30:02;12;12;
45440;PMS5003;31189;38.790;-77.084;2024-02-21T01:32:28;20;15;
45440;PMS5003;31189;38.790;-77.084;2024-02-21T01:34:53;18;16;
45440;PMS5003;31189;38.790;-77.084;2024-02-21T01:37:18;24;13;
45440;PMS5003;31189;38.790;-77.084;2024-02-21T01:39:44;15;15;
45440;PMS5003;31189;38.790;-77.084;2024-02-21T01:42:09;15;12;
45440;PMS5003;31189;38.790;-77.084;2024-02-21T01:44:35;16;12;
45440;PMS5003;31189;38.790;-77.084;2024-02-21T01:47:00;29;15;
45440;PMS5003;31189;38.790;-77.084;2024-02-21T01:49:26;24;15;
45440;PMS5003;31189;38.790;-77.084;2024-02-21T01:51:51;26;15;
45440;PMS5003;31189;38.790;-77.084;2024-02-21T01:54:16;14;13;
45440;PMS5003;31189;38.790;-77.084;2024-02-21T01:56:42;14;12;
45440;PMS5003;31189;38.790;-77.084;2024-02-21T01:59:08;15;12;
45440;PMS5003;31189;38.790;-77.084;2024-02-21T02:01:33;18;14;
45440;PMS5003;31189;38.790;-77.084;2024-02-21T02:03:59;12;10;
45440;PMS5003;31189;38.790;-77.084;2024-02-21T02:06:25;14;12;
45440;PMS5003;31189;38.790;-77.084;2024-02-21T02:08:50;17;10;
45440;PMS5003;31189;38.790;-77.084;2024-02-21T02:11:16;14;11;
45440;PMS5003;31189;38.790;-77.084;2024-02-21T02:13:42;9;8;
45440;PMS5003;31189;38.790;-77.084;2024-02-21T02:16:07;13;9;
45440;PMS5003;31189;38.790;-77.084;2024-02-21T02:18:33;10;8;
45440;PMS5003;31189;38.790;-77.084;2024-02-21T02:20:59;10;8;
45440;PMS5003;31189;38.790;-77.084;2024-02-21T02:23:24;13;11;
45440;PMS5003;31189;38.790;-77.084;2024-02-21T02:25:50;10;10;
45440;PMS5003;31189;38.790;-77.084;2024-02-21T02:28:16;9;9;
45440;PMS5003;31189;38.790;-77.084;2024-02-21T02:30:41;13;9;
45440;PMS5003;31189;38.790;-77.084;2024-02-21T02:33:06;25;9;
45440;PMS5003;31189;38.790;-77.084;2024-02-21T02:35:32;12;10;
45440;PMS5003;31189;38.790;-77.084;2024-02-21T02:37:58;12;6;
45440;PMS5003;31189;38.790;-77.084;2024-02-21T02:40:23;9;8;
45440;PMS5003;31189;38.790;-77.084;2024-02-21T02:42:49;11;7;
45440;PMS5003;31189;38.790;-77.084;2024-02-21T02:45:14;16;10;
45440;PMS5003;31189;38.790;-77.084;2024-02-21T02:47:40;9;8;
45440;PMS5003;31189;38.790;-77.084;2024-02-21T02:50:06;7;7;
45440;PMS5003;31189;38.790;-77.084;2024-02-21T02:52:31;7;7;
45440;PMS5003;31189;38.790;-77.084;2024-02-21T02:54:57;7;7;
45440;PMS5003;31189;38.790;-77.084;2024-02-21T02:57:23;9;6;
45440;PMS5003;31189;38.790;-77.084;2024-02-21T02:59:49;7;7;
45440;PMS5003;31189;38.790;-77.084;2024-02-21T03:02:14;9;7;
45440;PMS5003;31189;38.790;-77.084;2024-02-21T03:04:40;9;8;
45440;PMS5003;31189;38.790;-77.084;2024-02-21T03:07:06;10;7;
45440;PMS5003;31189;38.790;-77.084;2024-02-21T03:09:31;8;8;
45440;PMS5003;31189;38.790;-77.084;2024-02-21T03:11:57;11;8;
45440;PMS5003;31189;38.790;-77.084;2024-02-21T03:14:23;6;6;
45440;PMS5003;31189;38.790;-77.084;2024-02-21T03:16:48;9;8;
45440;PMS5003;31189;38.790;-77.084;2024-02-21T03:19:14;9;5;
45440;PMS5003;31189;38.790;-77.084;2024-02-21T03:21:39;7;5;
45440;PMS5003;31189;38.790;-77.084;2024-02-21T03:24:05;6;5;
45440;PMS5003;31189;38.790;-77.084;2024-02-21T03:26:31;6;4;
45440;PMS5003;31189;38.790;-77.084;2024-02-21T03:28:56;5;5;
45440;PMS5003;31189;38.790;-77.084;2024-02-21T03:31:22;11;7;
45440;PMS5003;31189;38.790;-77.084;2024-02-21T03:33:48;9;6;
45440;PMS5003;31189;38.790;-77.084;2024-02-21T03:36:14;10;7;
45440;PMS5003;31189;38.790;-77.084;2024-02-21T03:38:39;8;6;
45440;PMS5003;31189;38.790;-77.084;2024-02-21T03:41:05;15;7;
45440;PMS5003;31189;38.790;-77.084;2024-02-21T03:43:30;7;6;
45440;PMS5003;31189;38.790;-77.084;2024-02-21T03:45:56;6;4;
45440;PMS5003;31189;38.790;-77.084;2024-02-21T03:48:22;7;6;
45440;PMS5003;31189;38.790;-77.084;2024-02-21T03:50:47;9;6;
45440;PMS5003;31189;38.790;-77.084;2024-02-21T03:53:13;8;5;
45440;PMS5003;31189;38.790;-77.084;2024-02-21T03:55:39;5;4;
45440;PMS5003;31189;38.790;-77.084;2024-02-21T03:58:05;9;6;
45440;PMS5003;31189;38.790;-77.084;2024-02-21T04:00:30;7;4;
45440;PMS5003;31189;38.790;-77.084;2024-02-21T04:02:56;8;5;
45440;PMS5003;31189;38.790;-77.084;2024-02-21T04:05:22;9;6;
45440;PMS5003;31189;38.790;-77.084;2024-02-21T04:07:47;8;4;
45440;PMS5003;31189;38.790;-77.084;2024-02-21T04:10:13;4;4;
45440;PMS5003;31189;38.790;-77.084;2024-02-21T04:12:39;5;3;
45440;PMS5003;31189;38.790;-77.084;2024-02-21T04:15:04;8;4;
45440;PMS5003;31189;38.790;-77.084;2024-02-21T04:17:30;3;3;
45440;PMS5003;31189;38.790;-77.084;2024-02-21T04:20:01;7;4;
45440;PMS5003;31189;38.790;-77.084;2024-02-21T04:22:21;4;3;
45440;PMS5003;31189;38.790;-77.084;2024-02-21T04:24:47;7;3;
45440;PMS5003;31189;38.790;-77.084;2024-02-21T04:27:13;4;3;
45440;PMS5003;31189;38.790;-77.084;2024-02-21T04:29:38;6;4;
45440;PMS5003;31189;38.790;-77.084;2024-02-21T04:32:04;3;3;
45440;PMS5003;31189;38.790;-77.084;2024-02-21T04:34:30;4;3;
45440;PMS5003;31189;38.790;-77.084;2024-02-21T04:36:55;4;4;
45440;PMS5003;31189;38.790;-77.084;2024-02-21T04:39:21;3;2;
45440;PMS5003;31189;38.790;-77.084;2024-02-21T04:41:47;3;2;
45440;PMS5003;31189;38.790;-77.084;2024-02-21T04:44:13;3;3;
45440;PMS5003;31189;38.790;-77.084;2024-02-21T04:46:38;6;3;
45440;PMS5003;31189;38.790;-77.084;2024-02-21T04:49:04;5;3;
45440;PMS5003;31189;38.790;-77.084;2024-02-21T04:51:29;3;2;
45440;PMS5003;31189;38.790;-77.084;2024-02-21T04:53:55;4;4;
45440;PMS5003;31189;38.790;-77.084;2024-02-21T04:56:21;3;3;
45440;PMS5003;31189;38.790;-77.084;2024-02-21T04:58:47;6;3;
45440;PMS5003;31189;38.790;-77.084;2024-02-21T05:01:12;2;2;
45440;PMS5003;31189;38.790;-77.084;2024-02-21T05:03:39;2;2;
45440;PMS5003;31189;38.790;-77.084;2024-02-21T05:06:04;2;2;
45440;PMS5003;31189;38.790;-77.084;2024-02-21T05:08:29;5;3;
45440;PMS5003;31189;38.790;-77.084;2024-02-21T05:10:55;2;2;
45440;PMS5003;31189;38.790;-77.084;2024-02-21T05:13:21;4;4;
45440;PMS5003;31189;38.790;-77.084;2024-02-21T05:15:46;3;3;
45440;PMS5003;31189;38.790;-77.084;2024-02-21T05:18:12;3;3;
45440;PMS5003;31189;38.790;-77.084;2024-02-21T05:20:38;8;3;
45440;PMS5003;31189;38.790;-77.084;2024-02-21T05:23:03;2;2;
45440;PMS5003;31189;38.790;-77.084;2024-02-21T05:25:29;2;2;
45440;PMS5003;31189;38.790;-77.084;2024-02-21T05:27:55;4;3;
45440;PMS5003;31189;38.790;-77.084;2024-02-21T05:30:21;3;3;
45440;PMS5003;31189;38.790;-77.084;2024-02-21T05:32:46;8;3;
45440;PMS5003;31189;38.790;-77.084;2024-02-21T05:35:12;2;2;
45440;PMS5003;31189;38.790;-77.084;2024-02-21T05:37:38;4;2;
45440;PMS5003;31189;38.790;-77.084;2024-02-21T05:40:03;5;3;
45440;PMS5003;31189;38.790;-77.084;2024-02-21T05:42:29;8;5;
45440;PMS5003;31189;38.790;-77.084;2024-02-21T05:44:55;2;2;
45440;PMS5003;31189;38.790;-77.084;2024-02-21T05:47:21;3;3;
45440;PMS5003;31189;38.790;-77.084;2024-02-21T05:49:46;1;1;
45440;PMS5003;31189;38.790;-77.084;2024-02-21T05:52:12;5;3;
45440;PMS5003;31189;38.790;-77.084;2024-02-21T05:54:38;4;3;
45440;PMS5003;31189;38.790;-77.084;2024-02-21T05:57:03;2;2;
45440;PMS5003;31189;38.790;-77.084;2024-02-21T05:59:29;5;3;
45440;PMS5003;31189;38.790;-77.084;2024-02-21T06:01:55;3;1;
45440;PMS5003;31189;38.790;-77.084;2024-02-21T06:04:20;5;4;
45440;PMS5003;31189;38.790;-77.084;2024-02-21T06:06:46;4;2;
45440;PMS5003;31189;38.790;-77.084;2024-02-21T06:09:13;5;4;
45440;PMS5003;31189;38.790;-77.084;2024-02-21T06:11:37;3;3;
45440;PMS5003;31189;38.790;-77.084;2024-02-21T06:14:03;4;2;
45440;PMS5003;31189;38.790;-77.084;2024-02-21T06:16:29;6;3;
45440;PMS5003;31189;38.790;-77.084;2024-02-21T06:18:54;3;3;
45440;PMS5003;31189;38.790;-77.084;2024-02-21T06:21:20;4;2;
45440;PMS5003;31189;38.790;-77.084;2024-02-21T06:23:46;4;4;
45440;PMS5003;31189;38.790;-77.084;2024-02-21T06:26:12;4;3;
45440;PMS5003;31189;38.790;-77.084;2024-02-21T06:28:37;2;2;
45440;PMS5003;31189;38.790;-77.084;2024-02-21T06:31:03;5;4;
45440;PMS5003;31189;38.790;-77.084;2024-02-21T06:33:29;5;3;
45440;PMS5003;31189;38.790;-77.084;2024-02-21T06:35:54;3;3;
45440;PMS5003;31189;38.790;-77.084;2024-02-21T06:38:20;4;2;
45440;PMS5003;31189;38.790;-77.084;2024-02-21T06:40:46;2;2;
45440;PMS5003;31189;38.790;-77.084;2024-02-21T06:43:11;5;4;
45440;PMS5003;31189;38.790;-77.084;2024-02-21T06:45:37;5;4;
45440;PMS5003;31189;38.790;-77.084;2024-02-21T06:48:03;2;2;
45440;PMS5003;31189;38.790;-77.084;2024-02-21T06:50:28;6;3;
45440;PMS5003;31189;38.790;-77.084;2024-02-21T06:52:54;3;3;
45440;PMS5003;31189;38.790;-77.084;2024-02-21T06:55:20;4;3;
45440;PMS5003;31189;38.790;-77.084;2024-02-21T06:57:46;2;2;
45440;PMS5003;31189;38.790;-77.084;2024-02-21T07:00:12;7;3;
45440;PMS5003;31189;38.790;-77.084;2024-02-21T07:02:37;3;2;
45440;PMS5003;31189;38.790;-77.084;2024-02-21T07:05:03;5;4;
45440;PMS5003;31189;38.790;-77.084;2024-02-21T07:07:28;3;3;
45440;PMS5003;31189;38.790;-77.084;2024-02-21T07:09:54;2;2;
45440;PMS5003;31189;38.790;-77.084;2024-02-21T07:12:20;6;2;
45440;PMS5003;31189;38.790;-77.084;2024-02-21T07:14:46;3;2;
45440;PMS5003;31189;38.790;-77.084;2024-02-21T07:17:11;6;4;
45440;PMS5003;31189;38.790;-77.084;2024-02-21T07:19:37;5;2;
45440;PMS5003;31189;38.790;-77.084;2024-02-21T07:22:03;7;3;
45440;PMS5003;31189;38.790;-77.084;2024-02-21T07:24:28;2;2;
45440;PMS5003;31189;38.790;-77.084;2024-02-21T07:26:54;7;4;
45440;PMS5003;31189;38.790;-77.084;2024-02-21T07:29:20;6;3;
45440;PMS5003;31189;38.790;-77.084;2024-02-21T07:31:46;4;4;
45440;PMS5003;31189;38.790;-77.084;2024-02-21T07:34:11;5;3;
45440;PMS5003;31189;38.790;-77.084;2024-02-21T07:36:37;3;2;
45440;PMS5003;31189;38.790;-77.084;2024-02-21T07:39:03;3;3;
45440;PMS5003;31189;38.790;-77.084;2024-02-21T07:41:28;6;4;
45440;PMS5003;31189;38.790;-77.084;2024-02-21T07:43:54;3;3;
45440;PMS5003;31189;38.790;-77.084;2024-02-21T07:46:20;3;3;
45440;PMS5003;31189;38.790;-77.084;2024-02-21T07:48:46;6;4;
45440;PMS5003;31189;38.790;-77.084;2024-02-21T07:51:11;3;3;
45440;PMS5003;31189;38.790;-77.084;2024-02-21T07:53:38;5;2;
45440;PMS5003;31189;38.790;-77.084;2024-02-21T07:56:03;4;3;
45440;PMS5003;31189;38.790;-77.084;2024-02-21T07:58:29;10;3;
45440;PMS5003;31189;38.790;-77.084;2024-02-21T08:00:54;5;3;
45440;PMS5003;31189;38.790;-77.084;2024-02-21T08:03:20;5;4;
45440;PMS5003;31189;38.790;-77.084;2024-02-21T08:05:45;6;3;
45440;PMS5003;31189;38.790;-77.084;2024-02-21T08:08:12;6;3;
45440;PMS5003;31189;38.790;-77.084;2024-02-21T08:10:37;3;3;
45440;PMS5003;31189;38.790;-77.084;2024-02-21T08:13:03;3;3;
45440;PMS5003;31189;38.790;-77.084;2024-02-21T08:15:28;8;3;
45440;PMS5003;31189;38.790;-77.084;2024-02-21T08:17:54;4;3;
45440;PMS5003;31189;38.790;-77.084;2024-02-21T08:20:20;6;3;
45440;PMS5003;31189;38.790;-77.084;2024-02-21T08:22:46;3;3;
45440;PMS5003;31189;38.790;-77.084;2024-02-21T08:25:11;4;3;
45440;PMS5003;31189;38.790;-77.084;2024-02-21T08:27:37;5;2;
45440;PMS5003;31189;38.790;-77.084;2024-02-21T08:30:03;3;3;
45440;PMS5003;31189;38.790;-77.084;2024-02-21T08:32:28;4;3;
45440;PMS5003;31189;38.790;-77.084;2024-02-21T08:34:54;4;4;
45440;PMS5003;31189;38.790;-77.084;2024-02-21T08:37:20;4;3;
45440;PMS5003;31189;38.790;-77.084;2024-02-21T08:39:45;15;5;
45440;PMS5003;31189;38.790;-77.084;2024-02-21T08:42:10;6;4;
45440;PMS5003;31189;38.790;-77.084;2024-02-21T08:44:36;2;2;
45440;PMS5003;31189;38.790;-77.084;2024-02-21T08:47:01;3;3;
45440;PMS5003;31189;38.790;-77.084;2024-02-21T08:49:27;3;3;
45440;PMS5003;31189;38.790;-77.084;2024-02-21T08:51:53;5;2;
45440;PMS5003;31189;38.790;-77.084;2024-02-21T08:54:19;6;3;
45440;PMS5003;31189;38.790;-77.084;2024-02-21T08:56:44;2;2;
45440;PMS5003;31189;38.790;-77.084;2024-02-21T08:59:10;3;3;
45440;PMS5003;31189;38.790;-77.084;2024-02-21T09:01:36;3;3;
45440;PMS5003;31189;38.790;-77.084;2024-02-21T09:04:02;6;4;
45440;PMS5003;31189;38.790;-77.084;2024-02-21T09:06:27;5;3;
45440;PMS5003;31189;38.790;-77.084;2024-02-21T09:08:53;4;3;
45440;PMS5003;31189;38.790;-77.084;2024-02-21T09:11:19;2;2;
45440;PMS5003;31189;38.790;-77.084;2024-02-21T09:13:44;5;5;
45440;PMS5003;31189;38.790;-77.084;2024-02-21T09:16:10;4;3;
45440;PMS5003;31189;38.790;-77.084;2024-02-21T09:18:36;8;3;
45440;PMS5003;31189;38.790;-77.084;2024-02-21T09:21:01;2;2;
45440;PMS5003;31189;38.790;-77.084;2024-02-21T09:23:27;5;4;
45440;PMS5003;31189;38.790;-77.084;2024-02-21T09:25:53;5;2;
45440;PMS5003;31189;38.790;-77.084;2024-02-21T09:28:19;4;4;
45440;PMS5003;31189;38.790;-77.084;2024-02-21T09:30:44;5;4;
45440;PMS5003;31189;38.790;-77.084;2024-02-21T09:33:10;3;3;
45440;PMS5003;31189;38.790;-77.084;2024-02-21T09:35:36;4;2;
45440;PMS5003;31189;38.790;-77.084;2024-02-21T09:38:02;3;3;
45440;PMS5003;31189;38.790;-77.084;2024-02-21T09:40:27;6;5;
45440;PMS5003;31189;38.790;-77.084;2024-02-21T09:42:55;2;2;
45440;PMS5003;31189;38.790;-77.084;2024-02-21T09:45:19;5;4;
45440;PMS5003;31189;38.790;-77.084;2024-02-21T09:47:49;4;4;
45440;PMS5003;31189;38.790;-77.084;2024-02-21T09:50:10;10;5;
45440;PMS5003;31189;38.790;-77.084;2024-02-21T09:52:36;10;5;
45440;PMS5003;31189;38.790;-77.084;2024-02-21T09:55:02;5;4;
45440;PMS5003;31189;38.790;-77.084;2024-02-21T09:57:27;6;2;
45440;PMS5003;31189;38.790;-77.084;2024-02-21T09:59:53;6;2;
45440;PMS5003;31189;38.790;-77.084;2024-02-21T10:02:19;2;2;
45440;PMS5003;31189;38.790;-77.084;2024-02-21T10:04:44;3;3;
45440;PMS5003;31189;38.790;-77.084;2024-02-21T10:07:10;4;4;
45440;PMS5003;31189;38.790;-77.084;2024-02-21T10:09:36;4;4;
45440;PMS5003;31189;38.790;-77.084;2024-02-21T10:12:07;5;3;
45440;PMS5003;31189;38.790;-77.084;2024-02-21T10:14:27;4;4;
45440;PMS5003;31189;38.790;-77.084;2024-02-21T10:16:57;4;3;
45440;PMS5003;31189;38.790;-77.084;2024-02-21T10:19:19;4;3;
45440;PMS5003;31189;38.790;-77.084;2024-02-21T10:21:45;3;3;
45440;PMS5003;31189;38.790;-77.084;2024-02-21T10:24:10;4;4;
45440;PMS5003;31189;38.790;-77.084;2024-02-21T10:26:36;8;4;
45440;PMS5003;31189;38.790;-77.084;2024-02-21T10:29:02;3;3;
45440;PMS5003;31189;38.790;-77.084;2024-02-21T10:31:27;6;3;
45440;PMS5003;31189;38.790;-77.084;2024-02-21T10:33:55;8;5;
45440;PMS5003;31189;38.790;-77.084;2024-02-21T10:36:19;4;4;
45440;PMS5003;31189;38.790;-77.084;2024-02-21T10:38:44;8;5;
45440;PMS5003;31189;38.790;-77.084;2024-02-21T10:41:10;8;3;
45440;PMS5003;31189;38.790;-77.084;2024-02-21T10:43:38;5;5;
45440;PMS5003;31189;38.790;-77.084;2024-02-21T10:46:03;10;4;
45440;PMS5003;31189;38.790;-77.084;2024-02-21T10:48:29;9;5;
45440;PMS5003;31189;38.790;-77.084;2024-02-21T10:50:56;9;5;
45440;PMS5003;31189;38.790;-77.084;2024-02-21T10:53:20;10;4;
45440;PMS5003;31189;38.790;-77.084;2024-02-21T10:55:46;6;5;
45440;PMS5003;31189;38.790;-77.084;2024-02-21T10:58:10;8;5;
45440;PMS5003;31189;38.790;-77.084;2024-02-21T11:00:36;8;6;
45440;PMS5003;31189;38.790;-77.084;2024-02-21T11:03:02;4;4;
45440;PMS5003;31189;38.790;-77.084;2024-02-21T11:05:27;6;4;
45440;PMS5003;31189;38.790;-77.084;2024-02-21T11:07:53;8;4;
45440;PMS5003;31189;38.790;-77.084;2024-02-21T11:10:23;9;5;
45440;PMS5003;31189;38.790;-77.084;2024-02-21T11:12:44;5;4;
45440;PMS5003;31189;38.790;-77.084;2024-02-21T11:15:10;6;6;
45440;PMS5003;31189;38.790;-77.084;2024-02-21T11:17:36;4;4;
45440;PMS5003;31189;38.790;-77.084;2024-02-21T11:22:27;4;4;
45440;PMS5003;31189;38.790;-77.084;2024-02-21T11:24:53;8;4;
45440;PMS5003;31189;38.790;-77.084;2024-02-21T11:27:19;3;3;
45440;PMS5003;31189;38.790;-77.084;2024-02-21T11:29:44;5;5;
45440;PMS5003;31189;38.790;-77.084;2024-02-21T11:32:10;9;5;
45440;PMS5003;31189;38.790;-77.084;2024-02-21T11:34:36;5;3;
45440;PMS5003;31189;38.790;-77.084;2024-02-21T11:37:02;5;4;
45440;PMS5003;31189;38.790;-77.084;2024-02-21T11:39:27;6;5;
45440;PMS5003;31189;38.790;-77.084;2024-02-21T11:42:02;21;6;
45440;PMS5003;31189;38.790;-77.084;2024-02-21T11:44:18;9;5;
45440;PMS5003;31189;38.790;-77.084;2024-02-21T11:46:44;6;4;
45440;PMS5003;31189;38.790;-77.084;2024-02-21T11:49:10;6;6;
45440;PMS5003;31189;38.790;-77.084;2024-02-21T11:51:36;6;6;
45440;PMS5003;31189;38.790;-77.084;2024-02-21T11:54:01;10;8;
45440;PMS5003;31189;38.790;-77.084;2024-02-21T11:56:27;8;7;
45440;PMS5003;31189;38.790;-77.084;2024-02-21T11:58:53;8;6;
45440;PMS5003;31189;38.790;-77.084;2024-02-21T12:01:19;6;5;
45440;PMS5003;31189;38.790;-77.084;2024-02-21T12:03:44;12;6;
45440;PMS5003;31189;38.790;-77.084;2024-02-21T12:06:10;9;6;
45440;PMS5003;31189;38.790;-77.084;2024-02-21T12:08:41;7;7;
45440;PMS5003;31189;38.790;-77.084;2024-02-21T12:11:01;10;10;
45440;PMS5003;31189;38.790;-77.084;2024-02-21T12:13:27;15;8;
45440;PMS5003;31189;38.790;-77.084;2024-02-21T12:15:53;11;8;
45440;PMS5003;31189;38.790;-77.084;2024-02-21T12:18:18;9;9;
45440;PMS5003;31189;38.790;-77.084;2024-02-21T12:20:44;7;7;
45440;PMS5003;31189;38.790;-77.084;2024-02-21T12:23:10;6;6;
45440;PMS5003;31189;38.790;-77.084;2024-02-21T12:25:36;8;8;
45440;PMS5003;31189;38.790;-77.084;2024-02-21T12:28:01;8;6;
45440;PMS5003;31189;38.790;-77.084;2024-02-21T12:30:27;5;5;
45440;PMS5003;31189;38.790;-77.084;2024-02-21T12:32:52;6;6;
45440;PMS5003;31189;38.790;-77.084;2024-02-21T12:35:18;8;8;
45440;PMS5003;31189;38.790;-77.084;2024-02-21T12:37:44;8;6;
45440;PMS5003;31189;38.790;-77.084;2024-02-21T12:40:10;9;8;
45440;PMS5003;31189;38.790;-77.084;2024-02-21T12:42:35;11;8;
45440;PMS5003;31189;38.790;-77.084;2024-02-21T12:45:01;6;6;
45440;PMS5003;31189;38.790;-77.084;2024-02-21T12:47:27;6;6;
45440;PMS5003;31189;38.790;-77.084;2024-02-21T12:49:53;12;9;
45440;PMS5003;31189;38.790;-77.084;2024-02-21T12:52:19;9;9;
45440;PMS5003;31189;38.790;-77.084;2024-02-21T12:54:44;13;8;
45440;PMS5003;31189;38.790;-77.084;2024-02-21T12:57:10;10;8;
45440;PMS5003;31189;38.790;-77.084;2024-02-21T12:59:35;12;9;
45440;PMS5003;31189;38.790;-77.084;2024-02-21T13:02:01;7;7;
45440;PMS5003;31189;38.790;-77.084;2024-02-21T13:04:27;11;9;
45440;PMS5003;31189;38.790;-77.084;2024-02-21T13:06:52;11;9;
45440;PMS5003;31189;38.790;-77.084;2024-02-21T13:09:18;13;10;
45440;PMS5003;31189;38.790;-77.084;2024-02-21T13:11:44;11;9;
45440;PMS5003;31189;38.790;-77.084;2024-02-21T13:14:10;12;11;
45440;PMS5003;31189;38.790;-77.084;2024-02-21T13:16:35;8;8;
45440;PMS5003;31189;38.790;-77.084;2024-02-21T13:19:01;15;9;
45440;PMS5003;31189;38.790;-77.084;2024-02-21T13:21:27;14;10;
45440;PMS5003;31189;38.790;-77.084;2024-02-21T13:23:52;12;9;
45440;PMS5003;31189;38.790;-77.084;2024-02-21T13:26:18;17;10;
45440;PMS5003;31189;38.790;-77.084;2024-02-21T13:28:44;7;7;
45440;PMS5003;31189;38.790;-77.084;2024-02-21T13:31:09;10;9;
45440;PMS5003;31189;38.790;-77.084;2024-02-21T13:33:35;9;6;
45440;PMS5003;31189;38.790;-77.084;2024-02-21T13:36:01;6;6;
45440;PMS5003;31189;38.790;-77.084;2024-02-21T13:38:26;13;10;
45440;PMS5003;31189;38.790;-77.084;2024-02-21T13:40:52;10;7;
45440;PMS5003;31189;38.790;-77.084;2024-02-21T13:43:18;10;7;
45440;PMS5003;31189;38.790;-77.084;2024-02-21T13:45:54;5;4;
45440;PMS5003;31189;38.790;-77.084;2024-02-21T13:48:09;10;8;
45440;PMS5003;31189;38.790;-77.084;2024-02-21T13:50:35;12;9;
45440;PMS5003;31189;38.790;-77.084;2024-02-21T13:53:00;11;7;
45440;PMS5003;31189;38.790;-77.084;2024-02-21T13:55:26;10;7;
45440;PMS5003;31189;38.790;-77.084;2024-02-21T13:57:51;7;6;
45440;PMS5003;31189;38.790;-77.084;2024-02-21T14:00:17;7;5;
45440;PMS5003;31189;38.790;-77.084;2024-02-21T14:02:43;8;5;
45440;PMS5003;31189;38.790;-77.084;2024-02-21T14:05:08;8;8;
45440;PMS5003;31189;38.790;-77.084;2024-02-21T14:07:34;7;7;
45440;PMS5003;31189;38.790;-77.084;2024-02-21T14:10:00;6;6;
45440;PMS5003;31189;38.790;-77.084;2024-02-21T14:12:25;10;8;
45440;PMS5003;31189;38.790;-77.084;2024-02-21T14:14:51;7;6;
45440;PMS5003;31189;38.790;-77.084;2024-02-21T14:17:17;9;8;
45440;PMS5003;31189;38.790;-77.084;2024-02-21T14:19:42;5;5;
45440;PMS5003;31189;38.790;-77.084;2024-02-21T14:22:08;4;4;
45440;PMS5003;31189;38.790;-77.084;2024-02-21T14:24:34;7;7;
45440;PMS5003;31189;38.790;-77.084;2024-02-21T14:26:59;4;4;
45440;PMS5003;31189;38.790;-77.084;2024-02-21T14:29:25;5;5;
45440;PMS5003;31189;38.790;-77.084;2024-02-21T14:31:51;8;7;
45440;PMS5003;31189;38.790;-77.084;2024-02-21T14:34:16;6;6;
45440;PMS5003;31189;38.790;-77.084;2024-02-21T14:36:42;6;6;
45440;PMS5003;31189;38.790;-77.084;2024-02-21T14:39:08;7;5;
45440;PMS5003;31189;38.790;-77.084;2024-02-21T14:41:33;7;6;
45440;PMS5003;31189;38.790;-77.084;2024-02-21T14:43:59;8;8;
45440;PMS5003;31189;38.790;-77.084;2024-02-21T14:46:25;10;9;
45440;PMS5003;31189;38.790;-77.084;2024-02-21T14:48:50;8;8;
45440;PMS5003;31189;38.790;-77.084;2024-02-21T14:51:16;10;7;
45440;PMS5003;31189;38.790;-77.084;2024-02-21T14:53:42;10;6;
45440;PMS5003;31189;38.790;-77.084;2024-02-21T14:58:33;11;8;
45440;PMS5003;31189;38.790;-77.084;2024-02-21T15:00:59;9;7;
45440;PMS5003;31189;38.790;-77.084;2024-02-21T15:03:24;8;8;
45440;PMS5003;31189;38.790;-77.084;2024-02-21T15:05:50;9;8;
45440;PMS5003;31189;38.790;-77.084;2024-02-21T15:08:16;6;6;
45440;PMS5003;31189;38.790;-77.084;2024-02-21T15:10:42;7;7;
45440;PMS5003;31189;38.790;-77.084;2024-02-21T15:13:07;10;7;
45440;PMS5003;31189;38.790;-77.084;2024-02-21T15:15:33;11;8;
45440;PMS5003;31189;38.790;-77.084;2024-02-21T15:17:59;10;10;
45440;PMS5003;31189;38.790;-77.084;2024-02-21T15:20:24;11;9;
45440;PMS5003;31189;38.790;-77.084;2024-02-21T15:22:50;8;8;
45440;PMS5003;31189;38.790;-77.084;2024-02-21T15:25:15;13;10;
45440;PMS5003;31189;38.790;-77.084;2024-02-21T15:27:42;10;9;
45440;PMS5003;31189;38.790;-77.084;2024-02-21T15:30:07;8;8;
45440;PMS5003;31189;38.790;-77.084;2024-02-21T15:32:32;8;7;
45440;PMS5003;31189;38.790;-77.084;2024-02-21T15:34:58;9;9;
45440;PMS5003;31189;38.790;-77.084;2024-02-21T15:37:24;9;7;
45440;PMS5003;31189;38.790;-77.084;2024-02-21T15:39:49;11;8;
45440;PMS5003;31189;38.790;-77.084;2024-02-21T15:42:15;8;7;
45440;PMS5003;31189;38.790;-77.084;2024-02-21T15:44:40;16;10;
45440;PMS5003;31189;38.790;-77.084;2024-02-21T15:47:06;10;9;
45440;PMS5003;31189;38.790;-77.084;2024-02-21T15:49:31;14;11;
45440;PMS5003;31189;38.790;-77.084;2024-02-21T15:51:57;8;8;
45440;PMS5003;31189;38.790;-77.084;2024-02-21T15:54:23;7;7;
45440;PMS5003;31189;38.790;-77.084;2024-02-21T15:56:48;9;8;
45440;PMS5003;31189;38.790;-77.084;2024-02-21T15:59:14;9;9;
45440;PMS5003;31189;38.790;-77.084;2024-02-21T16:01:39;10;8;